<?xml version="1.0" encoding="UTF-8"?>
<gpx xmlns="http://www.topografix.com/GPX/1/1" xmlns:xsi="http://www.w3.org/2001/XMLSchema-instance" version="1.1" xsi:schemaLocation="http://www.topografix.com/GPX/1/1 http://www.topografix.com/GPX/1/1/gpx.xsd">
  <metadata>
    <name>Georgia Peach Women’s Sprint Triathlon 2026</name>
  </metadata>
  <trk>
    <name>Georgia Peach Women’s Sprint Triathlon 2026</name>
    <trkseg>
      <trkpt lat="34.353313" lon="-83.793045">
        <ele>333.799818</ele>
        <time>2026-07-19T07:37:19.000Z</time>
      </trkpt>
      <trkpt lat="34.353911" lon="-83.792285">
        <ele>333.799803</ele>
        <time>2026-07-19T07:37:29.000Z</time>
      </trkpt>
      <trkpt lat="34.354116" lon="-83.792047">
        <ele>334.278913</ele>
        <time>2026-07-19T07:37:32.000Z</time>
      </trkpt>
      <trkpt lat="34.354296" lon="-83.791858">
        <ele>334.772328</ele>
        <time>2026-07-19T07:37:35.000Z</time>
      </trkpt>
      <trkpt lat="34.354934" lon="-83.791116">
        <ele>336.5173</ele>
        <time>2026-07-19T07:37:45.000Z</time>
      </trkpt>
      <trkpt lat="34.355211" lon="-83.790685">
        <ele>337.465436</ele>
        <time>2026-07-19T07:37:50.000Z</time>
      </trkpt>
      <trkpt lat="34.355391" lon="-83.790422">
        <ele>338.538357</ele>
        <time>2026-07-19T07:37:53.000Z</time>
      </trkpt>
      <trkpt lat="34.355572" lon="-83.790111">
        <ele>339.661693</ele>
        <time>2026-07-19T07:37:56.000Z</time>
      </trkpt>
      <trkpt lat="34.355711" lon="-83.789899">
        <ele>340.510688</ele>
        <time>2026-07-19T07:37:58.000Z</time>
      </trkpt>
      <trkpt lat="34.355877" lon="-83.789644">
        <ele>341.538365</ele>
        <time>2026-07-19T07:38:01.000Z</time>
      </trkpt>
      <trkpt lat="34.356012" lon="-83.789433">
        <ele>342.380126</ele>
        <time>2026-07-19T07:38:03.000Z</time>
      </trkpt>
      <trkpt lat="34.356086" lon="-83.789327">
        <ele>342.820268</ele>
        <time>2026-07-19T07:38:04.000Z</time>
      </trkpt>
      <trkpt lat="34.356199" lon="-83.789198">
        <ele>343.363171</ele>
        <time>2026-07-19T07:38:06.000Z</time>
      </trkpt>
      <trkpt lat="34.35628" lon="-83.789104">
        <ele>343.737115</ele>
        <time>2026-07-19T07:38:07.000Z</time>
      </trkpt>
      <trkpt lat="34.356339" lon="-83.789031">
        <ele>344.068188</ele>
        <time>2026-07-19T07:38:08.000Z</time>
      </trkpt>
      <trkpt lat="34.356741" lon="-83.78869">
        <ele>345.475862</ele>
        <time>2026-07-19T07:38:13.000Z</time>
      </trkpt>
      <trkpt lat="34.357025" lon="-83.788522">
        <ele>346.39985</ele>
        <time>2026-07-19T07:38:17.000Z</time>
      </trkpt>
      <trkpt lat="34.357815" lon="-83.788218">
        <ele>348.758675</ele>
        <time>2026-07-19T07:38:26.000Z</time>
      </trkpt>
      <trkpt lat="34.358381" lon="-83.788026">
        <ele>349.690948</ele>
        <time>2026-07-19T07:38:33.000Z</time>
      </trkpt>
      <trkpt lat="34.358668" lon="-83.787997">
        <ele>349.993137</ele>
        <time>2026-07-19T07:38:36.000Z</time>
      </trkpt>
      <trkpt lat="34.358897" lon="-83.788009">
        <ele>350.226821</ele>
        <time>2026-07-19T07:38:39.000Z</time>
      </trkpt>
      <trkpt lat="34.359078" lon="-83.788084">
        <ele>350.430072</ele>
        <time>2026-07-19T07:38:41.000Z</time>
      </trkpt>
      <trkpt lat="34.359528" lon="-83.788223">
        <ele>350.909334</ele>
        <time>2026-07-19T07:38:46.000Z</time>
      </trkpt>
      <trkpt lat="34.360112" lon="-83.788483">
        <ele>351.157881</ele>
        <time>2026-07-19T07:38:53.000Z</time>
      </trkpt>
      <trkpt lat="34.360132" lon="-83.788489">
        <ele>351.160567</ele>
        <time>2026-07-19T07:38:53.000Z</time>
      </trkpt>
      <trkpt lat="34.360933" lon="-83.78882">
        <ele>351.237911</ele>
        <time>2026-07-19T07:39:02.000Z</time>
      </trkpt>
      <trkpt lat="34.361371" lon="-83.788998">
        <ele>351.280996</ele>
        <time>2026-07-19T07:39:07.000Z</time>
      </trkpt>
      <trkpt lat="34.36175" lon="-83.789104">
        <ele>351.750531</ele>
        <time>2026-07-19T07:39:11.000Z</time>
      </trkpt>
      <trkpt lat="34.362147" lon="-83.789166">
        <ele>352.305939</ele>
        <time>2026-07-19T07:39:15.000Z</time>
      </trkpt>
      <trkpt lat="34.362611" lon="-83.789151">
        <ele>352.932441</ele>
        <time>2026-07-19T07:39:20.000Z</time>
      </trkpt>
      <trkpt lat="34.364643" lon="-83.788807">
        <ele>355.248083</ele>
        <time>2026-07-19T07:39:43.000Z</time>
      </trkpt>
      <trkpt lat="34.365784" lon="-83.788609">
        <ele>357.456445</ele>
        <time>2026-07-19T07:39:56.000Z</time>
      </trkpt>
      <trkpt lat="34.366019" lon="-83.788569">
        <ele>357.981159</ele>
        <time>2026-07-19T07:39:59.000Z</time>
      </trkpt>
      <trkpt lat="34.366395" lon="-83.788498">
        <ele>358.822386</ele>
        <time>2026-07-19T07:40:03.000Z</time>
      </trkpt>
      <trkpt lat="34.366724" lon="-83.788458">
        <ele>359.581929</ele>
        <time>2026-07-19T07:40:07.000Z</time>
      </trkpt>
      <trkpt lat="34.366981" lon="-83.788473">
        <ele>360.250667</ele>
        <time>2026-07-19T07:40:10.000Z</time>
      </trkpt>
      <trkpt lat="34.367262" lon="-83.788538">
        <ele>361.074906</ele>
        <time>2026-07-19T07:40:13.000Z</time>
      </trkpt>
      <trkpt lat="34.367733" lon="-83.788702">
        <ele>362.41057</ele>
        <time>2026-07-19T07:40:18.000Z</time>
      </trkpt>
      <trkpt lat="34.367823" lon="-83.788749">
        <ele>362.687164</ele>
        <time>2026-07-19T07:40:19.000Z</time>
      </trkpt>
      <trkpt lat="34.368056" lon="-83.788921">
        <ele>363.454567</ele>
        <time>2026-07-19T07:40:22.000Z</time>
      </trkpt>
      <trkpt lat="34.368359" lon="-83.789244">
        <ele>364.532883</ele>
        <time>2026-07-19T07:40:26.000Z</time>
      </trkpt>
      <trkpt lat="34.369032" lon="-83.790375">
        <ele>366.607763</ele>
        <time>2026-07-19T07:40:39.000Z</time>
      </trkpt>
      <trkpt lat="34.369305" lon="-83.790738">
        <ele>367.316409</ele>
        <time>2026-07-19T07:40:44.000Z</time>
      </trkpt>
      <trkpt lat="34.369582" lon="-83.791011">
        <ele>367.953047</ele>
        <time>2026-07-19T07:40:48.000Z</time>
      </trkpt>
      <trkpt lat="34.369836" lon="-83.791184">
        <ele>368.467395</ele>
        <time>2026-07-19T07:40:51.000Z</time>
      </trkpt>
      <trkpt lat="34.370986" lon="-83.791634">
        <ele>370.657657</ele>
        <time>2026-07-19T07:41:04.000Z</time>
      </trkpt>
      <trkpt lat="34.372435" lon="-83.792109">
        <ele>371.026146</ele>
        <time>2026-07-19T07:41:21.000Z</time>
      </trkpt>
      <trkpt lat="34.37267" lon="-83.792146">
        <ele>371.022621</ele>
        <time>2026-07-19T07:41:24.000Z</time>
      </trkpt>
      <trkpt lat="34.37294" lon="-83.792179">
        <ele>371.018962</ele>
        <time>2026-07-19T07:41:27.000Z</time>
      </trkpt>
      <trkpt lat="34.373301" lon="-83.79213">
        <ele>370.989342</ele>
        <time>2026-07-19T07:41:31.000Z</time>
      </trkpt>
      <trkpt lat="34.373682" lon="-83.792046">
        <ele>370.956415</ele>
        <time>2026-07-19T07:41:35.000Z</time>
      </trkpt>
      <trkpt lat="34.374086" lon="-83.791909">
        <ele>370.921242</ele>
        <time>2026-07-19T07:41:40.000Z</time>
      </trkpt>
      <trkpt lat="34.374655" lon="-83.791613">
        <ele>370.870717</ele>
        <time>2026-07-19T07:41:47.000Z</time>
      </trkpt>
      <trkpt lat="34.375383" lon="-83.79106">
        <ele>371.045378</ele>
        <time>2026-07-19T07:41:57.000Z</time>
      </trkpt>
      <trkpt lat="34.375603" lon="-83.790838">
        <ele>371.104775</ele>
        <time>2026-07-19T07:42:00.000Z</time>
      </trkpt>
      <trkpt lat="34.376362" lon="-83.790012">
        <ele>371.160671</ele>
        <time>2026-07-19T07:42:11.000Z</time>
      </trkpt>
      <trkpt lat="34.3764" lon="-83.789988">
        <ele>371.151959</ele>
        <time>2026-07-19T07:42:11.000Z</time>
      </trkpt>
      <trkpt lat="34.376468" lon="-83.789878">
        <ele>371.127164</ele>
        <time>2026-07-19T07:42:12.000Z</time>
      </trkpt>
      <trkpt lat="34.376722" lon="-83.789615">
        <ele>371.051688</ele>
        <time>2026-07-19T07:42:16.000Z</time>
      </trkpt>
      <trkpt lat="34.377259" lon="-83.788981">
        <ele>370.882414</ele>
        <time>2026-07-19T07:42:24.000Z</time>
      </trkpt>
      <trkpt lat="34.377749" lon="-83.788435">
        <ele>371.179967</ele>
        <time>2026-07-19T07:42:31.000Z</time>
      </trkpt>
      <trkpt lat="34.378061" lon="-83.7881">
        <ele>371.486796</ele>
        <time>2026-07-19T07:42:36.000Z</time>
      </trkpt>
      <trkpt lat="34.37848" lon="-83.787788">
        <ele>371.852598</ele>
        <time>2026-07-19T07:42:41.000Z</time>
      </trkpt>
      <trkpt lat="34.378849" lon="-83.787544">
        <ele>372.167256</ele>
        <time>2026-07-19T07:42:46.000Z</time>
      </trkpt>
      <trkpt lat="34.379022" lon="-83.787477">
        <ele>372.376188</ele>
        <time>2026-07-19T07:42:48.000Z</time>
      </trkpt>
      <trkpt lat="34.380351" lon="-83.786998">
        <ele>373.937541</ele>
        <time>2026-07-19T07:43:03.000Z</time>
      </trkpt>
      <trkpt lat="34.380695" lon="-83.786818">
        <ele>374.608045</ele>
        <time>2026-07-19T07:43:07.000Z</time>
      </trkpt>
      <trkpt lat="34.380929" lon="-83.786665">
        <ele>375.384079</ele>
        <time>2026-07-19T07:43:10.000Z</time>
      </trkpt>
      <trkpt lat="34.381347" lon="-83.786326">
        <ele>376.806786</ele>
        <time>2026-07-19T07:43:16.000Z</time>
      </trkpt>
      <trkpt lat="34.381836" lon="-83.785859">
        <ele>378.632098</ele>
        <time>2026-07-19T07:43:23.000Z</time>
      </trkpt>
      <trkpt lat="34.382164" lon="-83.785541">
        <ele>379.93878</ele>
        <time>2026-07-19T07:43:28.000Z</time>
      </trkpt>
      <trkpt lat="34.383086" lon="-83.784613">
        <ele>384.240611</ele>
        <time>2026-07-19T07:43:41.000Z</time>
      </trkpt>
      <trkpt lat="34.383164" lon="-83.784539">
        <ele>384.591209</ele>
        <time>2026-07-19T07:43:42.000Z</time>
      </trkpt>
      <trkpt lat="34.38348" lon="-83.784231">
        <ele>386.022153</ele>
        <time>2026-07-19T07:43:47.000Z</time>
      </trkpt>
      <trkpt lat="34.383676" lon="-83.784043">
        <ele>386.759425</ele>
        <time>2026-07-19T07:43:50.000Z</time>
      </trkpt>
      <trkpt lat="34.385364" lon="-83.782339">
        <ele>392.440619</ele>
        <time>2026-07-19T07:44:14.000Z</time>
      </trkpt>
      <trkpt lat="34.386286" lon="-83.781662">
        <ele>394.072422</ele>
        <time>2026-07-19T07:44:26.000Z</time>
      </trkpt>
      <trkpt lat="34.386776" lon="-83.781348">
        <ele>393.352167</ele>
        <time>2026-07-19T07:44:32.000Z</time>
      </trkpt>
      <trkpt lat="34.386809" lon="-83.781322">
        <ele>393.310853</ele>
        <time>2026-07-19T07:44:32.000Z</time>
      </trkpt>
      <trkpt lat="34.386994" lon="-83.781222">
        <ele>393.017586</ele>
        <time>2026-07-19T07:44:34.000Z</time>
      </trkpt>
      <trkpt lat="34.387627" lon="-83.780955">
        <ele>392.096828</ele>
        <time>2026-07-19T07:44:41.000Z</time>
      </trkpt>
      <trkpt lat="34.388236" lon="-83.780763">
        <ele>391.581199</ele>
        <time>2026-07-19T07:44:48.000Z</time>
      </trkpt>
      <trkpt lat="34.38948" lon="-83.780329">
        <ele>391.41005</ele>
        <time>2026-07-19T07:45:02.000Z</time>
      </trkpt>
      <trkpt lat="34.390408" lon="-83.7799">
        <ele>391.754953</ele>
        <time>2026-07-19T07:45:13.000Z</time>
      </trkpt>
      <trkpt lat="34.392158" lon="-83.779055">
        <ele>392.489449</ele>
        <time>2026-07-19T07:45:34.000Z</time>
      </trkpt>
      <trkpt lat="34.39277" lon="-83.778771">
        <ele>392.652875</ele>
        <time>2026-07-19T07:45:41.000Z</time>
      </trkpt>
      <trkpt lat="34.393195" lon="-83.778627">
        <ele>392.984348</ele>
        <time>2026-07-19T07:45:46.000Z</time>
      </trkpt>
      <trkpt lat="34.393686" lon="-83.778598">
        <ele>393.822383</ele>
        <time>2026-07-19T07:45:51.000Z</time>
      </trkpt>
      <trkpt lat="34.393969" lon="-83.778631">
        <ele>394.299662</ele>
        <time>2026-07-19T07:45:54.000Z</time>
      </trkpt>
      <trkpt lat="34.394443" lon="-83.778752">
        <ele>395.125228</ele>
        <time>2026-07-19T07:45:59.000Z</time>
      </trkpt>
      <trkpt lat="34.39501" lon="-83.778907">
        <ele>395.766915</ele>
        <time>2026-07-19T07:46:05.000Z</time>
      </trkpt>
      <trkpt lat="34.395351" lon="-83.778983">
        <ele>395.717911</ele>
        <time>2026-07-19T07:46:09.000Z</time>
      </trkpt>
      <trkpt lat="34.395565" lon="-83.778974">
        <ele>395.684525</ele>
        <time>2026-07-19T07:46:11.000Z</time>
      </trkpt>
      <trkpt lat="34.395809" lon="-83.778948">
        <ele>395.649775</ele>
        <time>2026-07-19T07:46:14.000Z</time>
      </trkpt>
      <trkpt lat="34.39603" lon="-83.778883">
        <ele>395.615817</ele>
        <time>2026-07-19T07:46:17.000Z</time>
      </trkpt>
      <trkpt lat="34.396346" lon="-83.778762">
        <ele>395.567023</ele>
        <time>2026-07-19T07:46:21.000Z</time>
      </trkpt>
      <trkpt lat="34.396752" lon="-83.778549">
        <ele>395.423807</ele>
        <time>2026-07-19T07:46:26.000Z</time>
      </trkpt>
      <trkpt lat="34.396808" lon="-83.778516">
        <ele>395.393698</ele>
        <time>2026-07-19T07:46:27.000Z</time>
      </trkpt>
      <trkpt lat="34.397374" lon="-83.778187">
        <ele>395.053046</ele>
        <time>2026-07-19T07:46:34.000Z</time>
      </trkpt>
      <trkpt lat="34.398407" lon="-83.777535">
        <ele>394.664122</ele>
        <time>2026-07-19T07:46:47.000Z</time>
      </trkpt>
      <trkpt lat="34.3987" lon="-83.777349">
        <ele>394.803084</ele>
        <time>2026-07-19T07:46:51.000Z</time>
      </trkpt>
      <trkpt lat="34.400059" lon="-83.776482">
        <ele>395.108439</ele>
        <time>2026-07-19T07:47:08.000Z</time>
      </trkpt>
      <trkpt lat="34.401354" lon="-83.775595">
        <ele>394.20568</ele>
        <time>2026-07-19T07:47:25.000Z</time>
      </trkpt>
      <trkpt lat="34.401776" lon="-83.775278">
        <ele>394.431076</ele>
        <time>2026-07-19T07:47:31.000Z</time>
      </trkpt>
      <trkpt lat="34.402198" lon="-83.774903">
        <ele>394.667162</ele>
        <time>2026-07-19T07:47:37.000Z</time>
      </trkpt>
      <trkpt lat="34.402401" lon="-83.774604">
        <ele>394.809901</ele>
        <time>2026-07-19T07:47:41.000Z</time>
      </trkpt>
      <trkpt lat="34.402518" lon="-83.774362">
        <ele>394.915889</ele>
        <time>2026-07-19T07:47:44.000Z</time>
      </trkpt>
      <trkpt lat="34.402686" lon="-83.773941">
        <ele>395.560308</ele>
        <time>2026-07-19T07:47:48.000Z</time>
      </trkpt>
      <trkpt lat="34.402942" lon="-83.773153">
        <ele>397.905637</ele>
        <time>2026-07-19T07:47:56.000Z</time>
      </trkpt>
      <trkpt lat="34.403075" lon="-83.772736">
        <ele>399.120701</ele>
        <time>2026-07-19T07:48:00.000Z</time>
      </trkpt>
      <trkpt lat="34.403168" lon="-83.772439">
        <ele>399.952933</ele>
        <time>2026-07-19T07:48:03.000Z</time>
      </trkpt>
      <trkpt lat="34.403379" lon="-83.771729">
        <ele>400.596976</ele>
        <time>2026-07-19T07:48:10.000Z</time>
      </trkpt>
      <trkpt lat="34.403475" lon="-83.771398">
        <ele>400.260705</ele>
        <time>2026-07-19T07:48:13.000Z</time>
      </trkpt>
      <trkpt lat="34.403731" lon="-83.770601">
        <ele>399.424432</ele>
        <time>2026-07-19T07:48:21.000Z</time>
      </trkpt>
      <trkpt lat="34.403782" lon="-83.770466">
        <ele>399.273619</ele>
        <time>2026-07-19T07:48:22.000Z</time>
      </trkpt>
      <trkpt lat="34.403937" lon="-83.770002">
        <ele>398.864791</ele>
        <time>2026-07-19T07:48:27.000Z</time>
      </trkpt>
      <trkpt lat="34.404131" lon="-83.769591">
        <ele>399.020643</ele>
        <time>2026-07-19T07:48:31.000Z</time>
      </trkpt>
      <trkpt lat="34.404464" lon="-83.769087">
        <ele>399.23446</ele>
        <time>2026-07-19T07:48:37.000Z</time>
      </trkpt>
      <trkpt lat="34.404605" lon="-83.768944">
        <ele>399.311775</ele>
        <time>2026-07-19T07:48:39.000Z</time>
      </trkpt>
      <trkpt lat="34.405448" lon="-83.768158">
        <ele>399.872024</ele>
        <time>2026-07-19T07:48:51.000Z</time>
      </trkpt>
      <trkpt lat="34.40647" lon="-83.767242">
        <ele>400.820083</ele>
        <time>2026-07-19T07:49:05.000Z</time>
      </trkpt>
      <trkpt lat="34.406514" lon="-83.767229">
        <ele>400.846983</ele>
        <time>2026-07-19T07:49:06.000Z</time>
      </trkpt>
      <trkpt lat="34.407061" lon="-83.766902">
        <ele>400.494357</ele>
        <time>2026-07-19T07:49:13.000Z</time>
      </trkpt>
      <trkpt lat="34.408337" lon="-83.766357">
        <ele>399.516808</ele>
        <time>2026-07-19T07:49:28.000Z</time>
      </trkpt>
      <trkpt lat="34.408401" lon="-83.766306">
        <ele>399.468722</ele>
        <time>2026-07-19T07:49:29.000Z</time>
      </trkpt>
      <trkpt lat="34.409799" lon="-83.765702">
        <ele>398.583541</ele>
        <time>2026-07-19T07:49:46.000Z</time>
      </trkpt>
      <trkpt lat="34.410195" lon="-83.765512">
        <ele>398.09656</ele>
        <time>2026-07-19T07:49:51.000Z</time>
      </trkpt>
      <trkpt lat="34.411436" lon="-83.764965">
        <ele>396.241394</ele>
        <time>2026-07-19T07:50:06.000Z</time>
      </trkpt>
      <trkpt lat="34.411657" lon="-83.764906">
        <ele>395.964662</ele>
        <time>2026-07-19T07:50:09.000Z</time>
      </trkpt>
      <trkpt lat="34.411879" lon="-83.764875">
        <ele>395.797228</ele>
        <time>2026-07-19T07:50:11.000Z</time>
      </trkpt>
      <trkpt lat="34.412221" lon="-83.764866">
        <ele>395.545465</ele>
        <time>2026-07-19T07:50:15.000Z</time>
      </trkpt>
      <trkpt lat="34.412714" lon="-83.764941">
        <ele>395.165583</ele>
        <time>2026-07-19T07:50:21.000Z</time>
      </trkpt>
      <trkpt lat="34.413455" lon="-83.765042">
        <ele>394.639715</ele>
        <time>2026-07-19T07:50:29.000Z</time>
      </trkpt>
      <trkpt lat="34.41373" lon="-83.765116">
        <ele>394.54652</ele>
        <time>2026-07-19T07:50:32.000Z</time>
      </trkpt>
      <trkpt lat="34.414235" lon="-83.765288">
        <ele>394.375806</ele>
        <time>2026-07-19T07:50:38.000Z</time>
      </trkpt>
      <trkpt lat="34.414364" lon="-83.765377">
        <ele>394.328834</ele>
        <time>2026-07-19T07:50:40.000Z</time>
      </trkpt>
      <trkpt lat="34.41459" lon="-83.765533">
        <ele>394.238574</ele>
        <time>2026-07-19T07:50:43.000Z</time>
      </trkpt>
      <trkpt lat="34.414953" lon="-83.765889">
        <ele>394.088466</ele>
        <time>2026-07-19T07:50:48.000Z</time>
      </trkpt>
      <trkpt lat="34.415228" lon="-83.766219">
        <ele>393.650171</ele>
        <time>2026-07-19T07:50:52.000Z</time>
      </trkpt>
      <trkpt lat="34.416068" lon="-83.767287">
        <ele>392.034735</ele>
        <time>2026-07-19T07:51:06.000Z</time>
      </trkpt>
      <trkpt lat="34.416434" lon="-83.767827">
        <ele>391.19768</ele>
        <time>2026-07-19T07:51:12.000Z</time>
      </trkpt>
      <trkpt lat="34.416735" lon="-83.768196">
        <ele>390.528109</ele>
        <time>2026-07-19T07:51:17.000Z</time>
      </trkpt>
      <trkpt lat="34.417153" lon="-83.768669">
        <ele>389.637669</ele>
        <time>2026-07-19T07:51:23.000Z</time>
      </trkpt>
      <trkpt lat="34.417369" lon="-83.768875">
        <ele>389.201</ele>
        <time>2026-07-19T07:51:26.000Z</time>
      </trkpt>
      <trkpt lat="34.417732" lon="-83.769193">
        <ele>389.327148</ele>
        <time>2026-07-19T07:51:31.000Z</time>
      </trkpt>
      <trkpt lat="34.4183" lon="-83.769653">
        <ele>390.583052</ele>
        <time>2026-07-19T07:51:39.000Z</time>
      </trkpt>
      <trkpt lat="34.418942" lon="-83.770113">
        <ele>391.980871</ele>
        <time>2026-07-19T07:51:47.000Z</time>
      </trkpt>
      <trkpt lat="34.419191" lon="-83.770235">
        <ele>392.792934</ele>
        <time>2026-07-19T07:51:50.000Z</time>
      </trkpt>
      <trkpt lat="34.419987" lon="-83.7705">
        <ele>396.202216</ele>
        <time>2026-07-19T07:51:59.000Z</time>
      </trkpt>
      <trkpt lat="34.420081" lon="-83.770525">
        <ele>396.606063</ele>
        <time>2026-07-19T07:52:00.000Z</time>
      </trkpt>
      <trkpt lat="34.421423" lon="-83.770964">
        <ele>402.283278</ele>
        <time>2026-07-19T07:52:15.000Z</time>
      </trkpt>
      <trkpt lat="34.42201" lon="-83.771088">
        <ele>404.67408</ele>
        <time>2026-07-19T07:52:22.000Z</time>
      </trkpt>
      <trkpt lat="34.422674" lon="-83.771106">
        <ele>407.356385</ele>
        <time>2026-07-19T07:52:29.000Z</time>
      </trkpt>
      <trkpt lat="34.423775" lon="-83.771164">
        <ele>411.804986</ele>
        <time>2026-07-19T07:52:41.000Z</time>
      </trkpt>
      <trkpt lat="34.42434" lon="-83.771195">
        <ele>414.013294</ele>
        <time>2026-07-19T07:52:47.000Z</time>
      </trkpt>
      <trkpt lat="34.426624" lon="-83.771275">
        <ele>421.030809</ele>
        <time>2026-07-19T07:53:12.000Z</time>
      </trkpt>
      <trkpt lat="34.428036" lon="-83.771285">
        <ele>422.705551</ele>
        <time>2026-07-19T07:53:28.000Z</time>
      </trkpt>
      <trkpt lat="34.428251" lon="-83.771286">
        <ele>422.514236</ele>
        <time>2026-07-19T07:53:30.000Z</time>
      </trkpt>
      <trkpt lat="34.429021" lon="-83.771296">
        <ele>421.821654</ele>
        <time>2026-07-19T07:53:39.000Z</time>
      </trkpt>
      <trkpt lat="34.429459" lon="-83.771383">
        <ele>421.422225</ele>
        <time>2026-07-19T07:53:44.000Z</time>
      </trkpt>
      <trkpt lat="34.429921" lon="-83.77149">
        <ele>420.909402</ele>
        <time>2026-07-19T07:53:49.000Z</time>
      </trkpt>
      <trkpt lat="34.430972" lon="-83.771751">
        <ele>419.413396</ele>
        <time>2026-07-19T07:54:01.000Z</time>
      </trkpt>
      <trkpt lat="34.431338" lon="-83.771848">
        <ele>418.917153</ele>
        <time>2026-07-19T07:54:05.000Z</time>
      </trkpt>
      <trkpt lat="34.431375" lon="-83.773007">
        <ele>416.629041</ele>
        <time>2026-07-19T07:54:16.000Z</time>
      </trkpt>
      <trkpt lat="34.431349" lon="-83.773452">
        <ele>415.675349</ele>
        <time>2026-07-19T07:54:20.000Z</time>
      </trkpt>
      <trkpt lat="34.431321" lon="-83.773566">
        <ele>415.403856</ele>
        <time>2026-07-19T07:54:21.000Z</time>
      </trkpt>
      <trkpt lat="34.431171" lon="-83.774021">
        <ele>414.369588</ele>
        <time>2026-07-19T07:54:25.000Z</time>
      </trkpt>
      <trkpt lat="34.430889" lon="-83.774647">
        <ele>413.50693</ele>
        <time>2026-07-19T07:54:32.000Z</time>
      </trkpt>
      <trkpt lat="34.430169" lon="-83.776189">
        <ele>411.943725</ele>
        <time>2026-07-19T07:54:48.000Z</time>
      </trkpt>
      <trkpt lat="34.429711" lon="-83.777033">
        <ele>411.330635</ele>
        <time>2026-07-19T07:54:57.000Z</time>
      </trkpt>
      <trkpt lat="34.428911" lon="-83.778591">
        <ele>410.590233</ele>
        <time>2026-07-19T07:55:14.000Z</time>
      </trkpt>
      <trkpt lat="34.428616" lon="-83.77906">
        <ele>410.519631</ele>
        <time>2026-07-19T07:55:19.000Z</time>
      </trkpt>
      <trkpt lat="34.428054" lon="-83.77982">
        <ele>410.485441</ele>
        <time>2026-07-19T07:55:28.000Z</time>
      </trkpt>
      <trkpt lat="34.427604" lon="-83.780703">
        <ele>410.781495</ele>
        <time>2026-07-19T07:55:38.000Z</time>
      </trkpt>
      <trkpt lat="34.427357" lon="-83.781096">
        <ele>410.918468</ele>
        <time>2026-07-19T07:55:43.000Z</time>
      </trkpt>
      <trkpt lat="34.426891" lon="-83.781647">
        <ele>411.15966</ele>
        <time>2026-07-19T07:55:50.000Z</time>
      </trkpt>
      <trkpt lat="34.426701" lon="-83.781835">
        <ele>411.259208</ele>
        <time>2026-07-19T07:55:53.000Z</time>
      </trkpt>
      <trkpt lat="34.426358" lon="-83.782141">
        <ele>411.431955</ele>
        <time>2026-07-19T07:55:58.000Z</time>
      </trkpt>
      <trkpt lat="34.426168" lon="-83.782385">
        <ele>411.546704</ele>
        <time>2026-07-19T07:56:01.000Z</time>
      </trkpt>
      <trkpt lat="34.425686" lon="-83.78326">
        <ele>411.478361</ele>
        <time>2026-07-19T07:56:11.000Z</time>
      </trkpt>
      <trkpt lat="34.425215" lon="-83.783975">
        <ele>410.808031</ele>
        <time>2026-07-19T07:56:19.000Z</time>
      </trkpt>
      <trkpt lat="34.425089" lon="-83.78413">
        <ele>410.637183</ele>
        <time>2026-07-19T07:56:21.000Z</time>
      </trkpt>
      <trkpt lat="34.424781" lon="-83.784414">
        <ele>410.283348</ele>
        <time>2026-07-19T07:56:25.000Z</time>
      </trkpt>
      <trkpt lat="34.424349" lon="-83.78478">
        <ele>409.845549</ele>
        <time>2026-07-19T07:56:31.000Z</time>
      </trkpt>
      <trkpt lat="34.424045" lon="-83.785">
        <ele>409.541399</ele>
        <time>2026-07-19T07:56:35.000Z</time>
      </trkpt>
      <trkpt lat="34.423769" lon="-83.785094">
        <ele>409.320444</ele>
        <time>2026-07-19T07:56:38.000Z</time>
      </trkpt>
      <trkpt lat="34.423581" lon="-83.78511">
        <ele>409.15606</ele>
        <time>2026-07-19T07:56:40.000Z</time>
      </trkpt>
      <trkpt lat="34.422959" lon="-83.785012">
        <ele>408.665689</ele>
        <time>2026-07-19T07:56:47.000Z</time>
      </trkpt>
      <trkpt lat="34.422911" lon="-83.784997">
        <ele>408.660945</ele>
        <time>2026-07-19T07:56:48.000Z</time>
      </trkpt>
      <trkpt lat="34.422592" lon="-83.785012">
        <ele>408.638378</ele>
        <time>2026-07-19T07:56:52.000Z</time>
      </trkpt>
      <trkpt lat="34.422289" lon="-83.785042">
        <ele>408.616754</ele>
        <time>2026-07-19T07:56:55.000Z</time>
      </trkpt>
      <trkpt lat="34.421543" lon="-83.785188">
        <ele>408.561354</ele>
        <time>2026-07-19T07:57:03.000Z</time>
      </trkpt>
      <trkpt lat="34.420764" lon="-83.785194">
        <ele>407.754985</ele>
        <time>2026-07-19T07:57:12.000Z</time>
      </trkpt>
      <trkpt lat="34.419855" lon="-83.785236">
        <ele>406.071676</ele>
        <time>2026-07-19T07:57:22.000Z</time>
      </trkpt>
      <trkpt lat="34.419416" lon="-83.785181">
        <ele>405.28443</ele>
        <time>2026-07-19T07:57:27.000Z</time>
      </trkpt>
      <trkpt lat="34.419124" lon="-83.785103">
        <ele>404.755574</ele>
        <time>2026-07-19T07:57:30.000Z</time>
      </trkpt>
      <trkpt lat="34.418489" lon="-83.784796">
        <ele>403.564194</ele>
        <time>2026-07-19T07:57:38.000Z</time>
      </trkpt>
      <trkpt lat="34.418164" lon="-83.784661">
        <ele>402.977283</ele>
        <time>2026-07-19T07:57:42.000Z</time>
      </trkpt>
      <trkpt lat="34.41802" lon="-83.784617">
        <ele>402.710569</ele>
        <time>2026-07-19T07:57:44.000Z</time>
      </trkpt>
      <trkpt lat="34.417474" lon="-83.784571">
        <ele>401.856498</ele>
        <time>2026-07-19T07:57:50.000Z</time>
      </trkpt>
      <trkpt lat="34.417138" lon="-83.784563">
        <ele>401.42005</ele>
        <time>2026-07-19T07:57:54.000Z</time>
      </trkpt>
      <trkpt lat="34.416578" lon="-83.784557">
        <ele>400.68397</ele>
        <time>2026-07-19T07:58:00.000Z</time>
      </trkpt>
      <trkpt lat="34.41634" lon="-83.784575">
        <ele>400.389678</ele>
        <time>2026-07-19T07:58:03.000Z</time>
      </trkpt>
      <trkpt lat="34.415875" lon="-83.784852">
        <ele>399.616449</ele>
        <time>2026-07-19T07:58:09.000Z</time>
      </trkpt>
      <trkpt lat="34.415413" lon="-83.784931">
        <ele>398.269366</ele>
        <time>2026-07-19T07:58:14.000Z</time>
      </trkpt>
      <trkpt lat="34.415109" lon="-83.785076">
        <ele>397.302255</ele>
        <time>2026-07-19T07:58:18.000Z</time>
      </trkpt>
      <trkpt lat="34.41487" lon="-83.785219">
        <ele>396.562077</ele>
        <time>2026-07-19T07:58:21.000Z</time>
      </trkpt>
      <trkpt lat="34.414752" lon="-83.785339">
        <ele>396.108289</ele>
        <time>2026-07-19T07:58:23.000Z</time>
      </trkpt>
      <trkpt lat="34.414595" lon="-83.785513">
        <ele>395.478152</ele>
        <time>2026-07-19T07:58:25.000Z</time>
      </trkpt>
      <trkpt lat="34.41419" lon="-83.786085">
        <ele>393.733936</ele>
        <time>2026-07-19T07:58:32.000Z</time>
      </trkpt>
      <trkpt lat="34.414056" lon="-83.786223">
        <ele>393.283272</ele>
        <time>2026-07-19T07:58:34.000Z</time>
      </trkpt>
      <trkpt lat="34.413722" lon="-83.786454">
        <ele>392.211209</ele>
        <time>2026-07-19T07:58:38.000Z</time>
      </trkpt>
      <trkpt lat="34.413519" lon="-83.78668">
        <ele>391.466005</ele>
        <time>2026-07-19T07:58:41.000Z</time>
      </trkpt>
      <trkpt lat="34.413074" lon="-83.787275">
        <ele>389.681096</ele>
        <time>2026-07-19T07:58:48.000Z</time>
      </trkpt>
      <trkpt lat="34.412933" lon="-83.787351">
        <ele>388.802191</ele>
        <time>2026-07-19T07:58:50.000Z</time>
      </trkpt>
      <trkpt lat="34.412857" lon="-83.787376">
        <ele>388.392863</ele>
        <time>2026-07-19T07:58:51.000Z</time>
      </trkpt>
      <trkpt lat="34.412553" lon="-83.787392">
        <ele>386.543453</ele>
        <time>2026-07-19T07:58:54.000Z</time>
      </trkpt>
      <trkpt lat="34.412186" lon="-83.787377">
        <ele>384.516112</ele>
        <time>2026-07-19T07:58:58.000Z</time>
      </trkpt>
      <trkpt lat="34.410626" lon="-83.787333">
        <ele>377.903023</ele>
        <time>2026-07-19T07:59:15.000Z</time>
      </trkpt>
      <trkpt lat="34.409358" lon="-83.787315">
        <ele>375.771794</ele>
        <time>2026-07-19T07:59:29.000Z</time>
      </trkpt>
      <trkpt lat="34.4079" lon="-83.787354">
        <ele>378.460086</ele>
        <time>2026-07-19T07:59:45.000Z</time>
      </trkpt>
      <trkpt lat="34.407842" lon="-83.787281">
        <ele>378.600867</ele>
        <time>2026-07-19T07:59:46.000Z</time>
      </trkpt>
      <trkpt lat="34.408407" lon="-83.786714">
        <ele>376.872212</ele>
        <time>2026-07-19T07:59:54.000Z</time>
      </trkpt>
      <trkpt lat="34.40865" lon="-83.786417">
        <ele>375.716391</ele>
        <time>2026-07-19T07:59:58.000Z</time>
      </trkpt>
      <trkpt lat="34.408886" lon="-83.786041">
        <ele>374.43752</ele>
        <time>2026-07-19T08:00:02.000Z</time>
      </trkpt>
      <trkpt lat="34.409203" lon="-83.785435">
        <ele>372.523442</ele>
        <time>2026-07-19T08:00:09.000Z</time>
      </trkpt>
      <trkpt lat="34.409642" lon="-83.78444">
        <ele>369.4221</ele>
        <time>2026-07-19T08:00:19.000Z</time>
      </trkpt>
      <trkpt lat="34.409821" lon="-83.784061">
        <ele>368.214845</ele>
        <time>2026-07-19T08:00:23.000Z</time>
      </trkpt>
      <trkpt lat="34.410168" lon="-83.7833">
        <ele>366.892433</ele>
        <time>2026-07-19T08:00:31.000Z</time>
      </trkpt>
      <trkpt lat="34.410409" lon="-83.782687">
        <ele>366.745423</ele>
        <time>2026-07-19T08:00:37.000Z</time>
      </trkpt>
      <trkpt lat="34.41048" lon="-83.782438">
        <ele>366.685801</ele>
        <time>2026-07-19T08:00:39.000Z</time>
      </trkpt>
      <trkpt lat="34.410505" lon="-83.782268">
        <ele>366.651447</ele>
        <time>2026-07-19T08:00:41.000Z</time>
      </trkpt>
      <trkpt lat="34.410527" lon="-83.782191">
        <ele>366.631533</ele>
        <time>2026-07-19T08:00:42.000Z</time>
      </trkpt>
      <trkpt lat="34.410526" lon="-83.781929">
        <ele>366.577536</ele>
        <time>2026-07-19T08:00:44.000Z</time>
      </trkpt>
      <trkpt lat="34.410526" lon="-83.781575">
        <ele>366.506133</ele>
        <time>2026-07-19T08:00:47.000Z</time>
      </trkpt>
      <trkpt lat="34.410338" lon="-83.780221">
        <ele>366.413964</ele>
        <time>2026-07-19T08:01:00.000Z</time>
      </trkpt>
      <trkpt lat="34.410359" lon="-83.779694">
        <ele>366.377715</ele>
        <time>2026-07-19T08:01:05.000Z</time>
      </trkpt>
      <trkpt lat="34.410394" lon="-83.778926">
        <ele>366.265797</ele>
        <time>2026-07-19T08:01:12.000Z</time>
      </trkpt>
      <trkpt lat="34.410535" lon="-83.778332">
        <ele>366.153368</ele>
        <time>2026-07-19T08:01:18.000Z</time>
      </trkpt>
      <trkpt lat="34.410739" lon="-83.777551">
        <ele>366.003028</ele>
        <time>2026-07-19T08:01:26.000Z</time>
      </trkpt>
      <trkpt lat="34.410831" lon="-83.777207">
        <ele>366.249598</ele>
        <time>2026-07-19T08:01:29.000Z</time>
      </trkpt>
      <trkpt lat="34.410941" lon="-83.776696">
        <ele>367.288575</ele>
        <time>2026-07-19T08:01:34.000Z</time>
      </trkpt>
      <trkpt lat="34.410978" lon="-83.776211">
        <ele>368.247182</ele>
        <time>2026-07-19T08:01:38.000Z</time>
      </trkpt>
      <trkpt lat="34.410959" lon="-83.775517">
        <ele>369.599417</ele>
        <time>2026-07-19T08:01:44.000Z</time>
      </trkpt>
      <trkpt lat="34.41094" lon="-83.775172">
        <ele>370.316693</ele>
        <time>2026-07-19T08:01:47.000Z</time>
      </trkpt>
      <trkpt lat="34.410858" lon="-83.773987">
        <ele>375.153753</ele>
        <time>2026-07-19T08:01:58.000Z</time>
      </trkpt>
      <trkpt lat="34.410773" lon="-83.772849">
        <ele>379.830949</ele>
        <time>2026-07-19T08:02:08.000Z</time>
      </trkpt>
      <trkpt lat="34.410752" lon="-83.77209">
        <ele>383.232465</ele>
        <time>2026-07-19T08:02:15.000Z</time>
      </trkpt>
      <trkpt lat="34.410787" lon="-83.770159">
        <ele>390.567936</ele>
        <time>2026-07-19T08:02:33.000Z</time>
      </trkpt>
      <trkpt lat="34.410833" lon="-83.769697">
        <ele>391.786517</ele>
        <time>2026-07-19T08:02:37.000Z</time>
      </trkpt>
      <trkpt lat="34.410918" lon="-83.769246">
        <ele>392.92325</ele>
        <time>2026-07-19T08:02:41.000Z</time>
      </trkpt>
      <trkpt lat="34.411049" lon="-83.768885">
        <ele>393.952523</ele>
        <time>2026-07-19T08:02:45.000Z</time>
      </trkpt>
      <trkpt lat="34.411672" lon="-83.767356">
        <ele>394.58318</ele>
        <time>2026-07-19T08:03:01.000Z</time>
      </trkpt>
      <trkpt lat="34.412098" lon="-83.766492">
        <ele>394.873572</ele>
        <time>2026-07-19T08:03:10.000Z</time>
      </trkpt>
      <trkpt lat="34.412495" lon="-83.765557">
        <ele>395.469624</ele>
        <time>2026-07-19T08:03:20.000Z</time>
      </trkpt>
      <trkpt lat="34.412729" lon="-83.76494">
        <ele>395.851271</ele>
        <time>2026-07-19T08:03:26.000Z</time>
      </trkpt>
      <trkpt lat="34.412217" lon="-83.764862">
        <ele>396.17871</ele>
        <time>2026-07-19T08:03:32.000Z</time>
      </trkpt>
      <trkpt lat="34.411882" lon="-83.764867">
        <ele>396.392619</ele>
        <time>2026-07-19T08:03:36.000Z</time>
      </trkpt>
      <trkpt lat="34.411643" lon="-83.764898">
        <ele>396.534883</ele>
        <time>2026-07-19T08:03:39.000Z</time>
      </trkpt>
      <trkpt lat="34.411444" lon="-83.764952">
        <ele>396.670037</ele>
        <time>2026-07-19T08:03:41.000Z</time>
      </trkpt>
      <trkpt lat="34.41019" lon="-83.765497">
        <ele>397.883759</ele>
        <time>2026-07-19T08:03:56.000Z</time>
      </trkpt>
      <trkpt lat="34.40979" lon="-83.765701">
        <ele>398.371531</ele>
        <time>2026-07-19T08:04:01.000Z</time>
      </trkpt>
      <trkpt lat="34.408409" lon="-83.766322">
        <ele>399.578107</ele>
        <time>2026-07-19T08:04:17.000Z</time>
      </trkpt>
      <trkpt lat="34.408338" lon="-83.766357">
        <ele>399.624206</ele>
        <time>2026-07-19T08:04:18.000Z</time>
      </trkpt>
      <trkpt lat="34.407057" lon="-83.766896">
        <ele>400.348145</ele>
        <time>2026-07-19T08:04:33.000Z</time>
      </trkpt>
      <trkpt lat="34.406509" lon="-83.767215">
        <ele>400.627292</ele>
        <time>2026-07-19T08:04:40.000Z</time>
      </trkpt>
      <trkpt lat="34.406483" lon="-83.767235">
        <ele>400.644165</ele>
        <time>2026-07-19T08:04:40.000Z</time>
      </trkpt>
      <trkpt lat="34.405445" lon="-83.768152">
        <ele>400.050486</ele>
        <time>2026-07-19T08:04:54.000Z</time>
      </trkpt>
      <trkpt lat="34.40462" lon="-83.76893">
        <ele>398.493871</ele>
        <time>2026-07-19T08:05:06.000Z</time>
      </trkpt>
      <trkpt lat="34.40446" lon="-83.769087">
        <ele>398.357216</ele>
        <time>2026-07-19T08:05:08.000Z</time>
      </trkpt>
      <trkpt lat="34.404128" lon="-83.769595">
        <ele>399.035537</ele>
        <time>2026-07-19T08:05:14.000Z</time>
      </trkpt>
      <trkpt lat="34.403944" lon="-83.770015">
        <ele>399.529996</ele>
        <time>2026-07-19T08:05:18.000Z</time>
      </trkpt>
      <trkpt lat="34.403783" lon="-83.77047">
        <ele>400.048799</ele>
        <time>2026-07-19T08:05:23.000Z</time>
      </trkpt>
      <trkpt lat="34.403737" lon="-83.770608">
        <ele>400.209948</ele>
        <time>2026-07-19T08:05:24.000Z</time>
      </trkpt>
      <trkpt lat="34.403476" lon="-83.771412">
        <ele>400.147544</ele>
        <time>2026-07-19T08:05:32.000Z</time>
      </trkpt>
      <trkpt lat="34.403389" lon="-83.771725">
        <ele>399.862759</ele>
        <time>2026-07-19T08:05:35.000Z</time>
      </trkpt>
      <trkpt lat="34.403162" lon="-83.772451">
        <ele>399.225315</ele>
        <time>2026-07-19T08:05:42.000Z</time>
      </trkpt>
      <trkpt lat="34.403075" lon="-83.772735">
        <ele>398.972914</ele>
        <time>2026-07-19T08:05:45.000Z</time>
      </trkpt>
      <trkpt lat="34.402935" lon="-83.773141">
        <ele>398.326021</ele>
        <time>2026-07-19T08:05:49.000Z</time>
      </trkpt>
      <trkpt lat="34.402691" lon="-83.773949">
        <ele>396.352692</ele>
        <time>2026-07-19T08:05:57.000Z</time>
      </trkpt>
      <trkpt lat="34.402519" lon="-83.774371">
        <ele>395.274935</ele>
        <time>2026-07-19T08:06:01.000Z</time>
      </trkpt>
      <trkpt lat="34.402393" lon="-83.774617">
        <ele>394.623521</ele>
        <time>2026-07-19T08:06:04.000Z</time>
      </trkpt>
      <trkpt lat="34.402194" lon="-83.774893">
        <ele>393.746133</ele>
        <time>2026-07-19T08:06:07.000Z</time>
      </trkpt>
      <trkpt lat="34.401784" lon="-83.775274">
        <ele>394.095648</ele>
        <time>2026-07-19T08:06:13.000Z</time>
      </trkpt>
      <trkpt lat="34.40136" lon="-83.775595">
        <ele>394.433125</ele>
        <time>2026-07-19T08:06:19.000Z</time>
      </trkpt>
      <trkpt lat="34.400052" lon="-83.776483">
        <ele>394.984919</ele>
        <time>2026-07-19T08:06:36.000Z</time>
      </trkpt>
      <trkpt lat="34.3987" lon="-83.777364">
        <ele>394.91829</ele>
        <time>2026-07-19T08:06:53.000Z</time>
      </trkpt>
      <trkpt lat="34.398393" lon="-83.77754">
        <ele>394.845313</ele>
        <time>2026-07-19T08:06:57.000Z</time>
      </trkpt>
      <trkpt lat="34.397388" lon="-83.778187">
        <ele>394.748563</ele>
        <time>2026-07-19T08:07:10.000Z</time>
      </trkpt>
      <trkpt lat="34.396809" lon="-83.778523">
        <ele>395.313708</ele>
        <time>2026-07-19T08:07:17.000Z</time>
      </trkpt>
      <trkpt lat="34.396758" lon="-83.778536">
        <ele>395.363672</ele>
        <time>2026-07-19T08:07:18.000Z</time>
      </trkpt>
      <trkpt lat="34.396349" lon="-83.778761">
        <ele>395.756693</ele>
        <time>2026-07-19T08:07:23.000Z</time>
      </trkpt>
      <trkpt lat="34.396038" lon="-83.778871">
        <ele>396.053892</ele>
        <time>2026-07-19T08:07:27.000Z</time>
      </trkpt>
      <trkpt lat="34.395807" lon="-83.778948">
        <ele>396.199457</ele>
        <time>2026-07-19T08:07:30.000Z</time>
      </trkpt>
      <trkpt lat="34.395565" lon="-83.778978">
        <ele>395.969206</ele>
        <time>2026-07-19T08:07:33.000Z</time>
      </trkpt>
      <trkpt lat="34.395347" lon="-83.778981">
        <ele>395.747882</ele>
        <time>2026-07-19T08:07:35.000Z</time>
      </trkpt>
      <trkpt lat="34.39502" lon="-83.778908">
        <ele>395.423018</ele>
        <time>2026-07-19T08:07:39.000Z</time>
      </trkpt>
      <trkpt lat="34.394447" lon="-83.778749">
        <ele>394.852837</ele>
        <time>2026-07-19T08:07:46.000Z</time>
      </trkpt>
      <trkpt lat="34.393962" lon="-83.778644">
        <ele>394.348489</ele>
        <time>2026-07-19T08:07:51.000Z</time>
      </trkpt>
      <trkpt lat="34.393686" lon="-83.778588">
        <ele>393.985926</ele>
        <time>2026-07-19T08:07:54.000Z</time>
      </trkpt>
      <trkpt lat="34.393196" lon="-83.778634">
        <ele>393.349299</ele>
        <time>2026-07-19T08:07:59.000Z</time>
      </trkpt>
      <trkpt lat="34.39276" lon="-83.778783">
        <ele>392.768584</ele>
        <time>2026-07-19T08:08:04.000Z</time>
      </trkpt>
      <trkpt lat="34.392168" lon="-83.779053">
        <ele>392.166518</ele>
        <time>2026-07-19T08:08:11.000Z</time>
      </trkpt>
      <trkpt lat="34.390394" lon="-83.779902">
        <ele>392.051474</ele>
        <time>2026-07-19T08:08:32.000Z</time>
      </trkpt>
      <trkpt lat="34.389472" lon="-83.780328">
        <ele>391.258973</ele>
        <time>2026-07-19T08:08:43.000Z</time>
      </trkpt>
      <trkpt lat="34.388234" lon="-83.780761">
        <ele>391.739712</ele>
        <time>2026-07-19T08:08:57.000Z</time>
      </trkpt>
      <trkpt lat="34.387639" lon="-83.780951">
        <ele>392.490985</ele>
        <time>2026-07-19T08:09:04.000Z</time>
      </trkpt>
      <trkpt lat="34.386996" lon="-83.781223">
        <ele>393.084924</ele>
        <time>2026-07-19T08:09:12.000Z</time>
      </trkpt>
      <trkpt lat="34.386817" lon="-83.781331">
        <ele>393.154998</ele>
        <time>2026-07-19T08:09:14.000Z</time>
      </trkpt>
      <trkpt lat="34.386791" lon="-83.781349">
        <ele>393.164874</ele>
        <time>2026-07-19T08:09:14.000Z</time>
      </trkpt>
      <trkpt lat="34.386284" lon="-83.781677">
        <ele>393.349087</ele>
        <time>2026-07-19T08:09:20.000Z</time>
      </trkpt>
      <trkpt lat="34.385365" lon="-83.782329">
        <ele>392.791658</ele>
        <time>2026-07-19T08:09:32.000Z</time>
      </trkpt>
      <trkpt lat="34.383677" lon="-83.784036">
        <ele>386.688051</ele>
        <time>2026-07-19T08:09:56.000Z</time>
      </trkpt>
      <trkpt lat="34.383478" lon="-83.78422">
        <ele>385.901076</ele>
        <time>2026-07-19T08:09:59.000Z</time>
      </trkpt>
      <trkpt lat="34.383172" lon="-83.784543">
        <ele>384.565503</ele>
        <time>2026-07-19T08:10:04.000Z</time>
      </trkpt>
      <trkpt lat="34.383087" lon="-83.784625">
        <ele>384.244583</ele>
        <time>2026-07-19T08:10:05.000Z</time>
      </trkpt>
      <trkpt lat="34.382151" lon="-83.78553">
        <ele>380.015008</ele>
        <time>2026-07-19T08:10:18.000Z</time>
      </trkpt>
      <trkpt lat="34.381826" lon="-83.785853">
        <ele>378.509861</ele>
        <time>2026-07-19T08:10:23.000Z</time>
      </trkpt>
      <trkpt lat="34.381349" lon="-83.786342">
        <ele>376.456077</ele>
        <time>2026-07-19T08:10:30.000Z</time>
      </trkpt>
      <trkpt lat="34.38094" lon="-83.786662">
        <ele>375.512206</ele>
        <time>2026-07-19T08:10:35.000Z</time>
      </trkpt>
      <trkpt lat="34.380693" lon="-83.786827">
        <ele>374.99737</ele>
        <time>2026-07-19T08:10:38.000Z</time>
      </trkpt>
      <trkpt lat="34.380343" lon="-83.786999">
        <ele>374.264089</ele>
        <time>2026-07-19T08:10:42.000Z</time>
      </trkpt>
      <trkpt lat="34.379025" lon="-83.787476">
        <ele>372.358315</ele>
        <time>2026-07-19T08:10:57.000Z</time>
      </trkpt>
      <trkpt lat="34.378857" lon="-83.787554">
        <ele>372.159001</ele>
        <time>2026-07-19T08:10:59.000Z</time>
      </trkpt>
      <trkpt lat="34.378473" lon="-83.787785">
        <ele>371.712482</ele>
        <time>2026-07-19T08:11:04.000Z</time>
      </trkpt>
      <trkpt lat="34.378055" lon="-83.788118">
        <ele>371.318598</ele>
        <time>2026-07-19T08:11:10.000Z</time>
      </trkpt>
      <trkpt lat="34.377739" lon="-83.788425">
        <ele>371.219622</ele>
        <time>2026-07-19T08:11:15.000Z</time>
      </trkpt>
      <trkpt lat="34.377265" lon="-83.788983">
        <ele>371.057759</ele>
        <time>2026-07-19T08:11:22.000Z</time>
      </trkpt>
      <trkpt lat="34.376717" lon="-83.789598">
        <ele>370.956428</ele>
        <time>2026-07-19T08:11:30.000Z</time>
      </trkpt>
      <trkpt lat="34.376483" lon="-83.789876">
        <ele>371.017401</ele>
        <time>2026-07-19T08:11:34.000Z</time>
      </trkpt>
      <trkpt lat="34.376406" lon="-83.789976">
        <ele>371.037457</ele>
        <time>2026-07-19T08:11:35.000Z</time>
      </trkpt>
      <trkpt lat="34.376368" lon="-83.790019">
        <ele>371.04448</ele>
        <time>2026-07-19T08:11:36.000Z</time>
      </trkpt>
      <trkpt lat="34.375604" lon="-83.790842">
        <ele>371.233031</ele>
        <time>2026-07-19T08:11:47.000Z</time>
      </trkpt>
      <trkpt lat="34.375382" lon="-83.79106">
        <ele>371.197736</ele>
        <time>2026-07-19T08:11:50.000Z</time>
      </trkpt>
      <trkpt lat="34.374659" lon="-83.791624">
        <ele>370.937824</ele>
        <time>2026-07-19T08:12:00.000Z</time>
      </trkpt>
      <trkpt lat="34.374101" lon="-83.791899">
        <ele>370.753288</ele>
        <time>2026-07-19T08:12:07.000Z</time>
      </trkpt>
      <trkpt lat="34.373686" lon="-83.792051">
        <ele>370.795847</ele>
        <time>2026-07-19T08:12:12.000Z</time>
      </trkpt>
      <trkpt lat="34.373304" lon="-83.792135">
        <ele>370.923243</ele>
        <time>2026-07-19T08:12:16.000Z</time>
      </trkpt>
      <trkpt lat="34.372923" lon="-83.792178">
        <ele>371.040651</ele>
        <time>2026-07-19T08:12:20.000Z</time>
      </trkpt>
      <trkpt lat="34.372675" lon="-83.792152">
        <ele>371.123505</ele>
        <time>2026-07-19T08:12:23.000Z</time>
      </trkpt>
      <trkpt lat="34.372431" lon="-83.7921">
        <ele>371.203132</ele>
        <time>2026-07-19T08:12:26.000Z</time>
      </trkpt>
      <trkpt lat="34.370982" lon="-83.791634">
        <ele>370.418961</ele>
        <time>2026-07-19T08:12:43.000Z</time>
      </trkpt>
      <trkpt lat="34.369833" lon="-83.79117">
        <ele>368.668875</ele>
        <time>2026-07-19T08:12:56.000Z</time>
      </trkpt>
      <trkpt lat="34.369572" lon="-83.791006">
        <ele>368.078709</ele>
        <time>2026-07-19T08:12:59.000Z</time>
      </trkpt>
      <trkpt lat="34.369306" lon="-83.790746">
        <ele>367.337854</ele>
        <time>2026-07-19T08:13:03.000Z</time>
      </trkpt>
      <trkpt lat="34.369042" lon="-83.79038">
        <ele>366.50967</ele>
        <time>2026-07-19T08:13:07.000Z</time>
      </trkpt>
      <trkpt lat="34.368347" lon="-83.789236">
        <ele>364.20784</ele>
        <time>2026-07-19T08:13:20.000Z</time>
      </trkpt>
      <trkpt lat="34.368059" lon="-83.788924">
        <ele>363.431926</ele>
        <time>2026-07-19T08:13:24.000Z</time>
      </trkpt>
      <trkpt lat="34.367817" lon="-83.788759">
        <ele>362.879743</ele>
        <time>2026-07-19T08:13:27.000Z</time>
      </trkpt>
      <trkpt lat="34.367722" lon="-83.788711">
        <ele>362.655822</ele>
        <time>2026-07-19T08:13:28.000Z</time>
      </trkpt>
      <trkpt lat="34.367265" lon="-83.788539">
        <ele>361.287978</ele>
        <time>2026-07-19T08:13:33.000Z</time>
      </trkpt>
      <trkpt lat="34.366969" lon="-83.788475">
        <ele>360.443864</ele>
        <time>2026-07-19T08:13:36.000Z</time>
      </trkpt>
      <trkpt lat="34.366723" lon="-83.788449">
        <ele>359.741608</ele>
        <time>2026-07-19T08:13:39.000Z</time>
      </trkpt>
      <trkpt lat="34.366389" lon="-83.788505">
        <ele>358.786611</ele>
        <time>2026-07-19T08:13:43.000Z</time>
      </trkpt>
      <trkpt lat="34.366029" lon="-83.788558">
        <ele>357.728919</ele>
        <time>2026-07-19T08:13:47.000Z</time>
      </trkpt>
      <trkpt lat="34.365795" lon="-83.788601">
        <ele>357.306431</ele>
        <time>2026-07-19T08:13:50.000Z</time>
      </trkpt>
      <trkpt lat="34.364638" lon="-83.788814">
        <ele>355.343224</ele>
        <time>2026-07-19T08:14:03.000Z</time>
      </trkpt>
      <trkpt lat="34.362617" lon="-83.789161">
        <ele>352.948049</ele>
        <time>2026-07-19T08:14:26.000Z</time>
      </trkpt>
      <trkpt lat="34.362154" lon="-83.789172">
        <ele>352.471845</ele>
        <time>2026-07-19T08:14:31.000Z</time>
      </trkpt>
      <trkpt lat="34.36175" lon="-83.789119">
        <ele>352.052608</ele>
        <time>2026-07-19T08:14:36.000Z</time>
      </trkpt>
      <trkpt lat="34.361375" lon="-83.788986">
        <ele>351.65098</ele>
        <time>2026-07-19T08:14:40.000Z</time>
      </trkpt>
      <trkpt lat="34.360926" lon="-83.788814">
        <ele>351.173975</ele>
        <time>2026-07-19T08:14:45.000Z</time>
      </trkpt>
      <trkpt lat="34.360143" lon="-83.788492">
        <ele>350.846086</ele>
        <time>2026-07-19T08:14:54.000Z</time>
      </trkpt>
      <trkpt lat="34.360106" lon="-83.788474">
        <ele>350.842851</ele>
        <time>2026-07-19T08:14:54.000Z</time>
      </trkpt>
      <trkpt lat="34.359533" lon="-83.788231">
        <ele>350.773498</ele>
        <time>2026-07-19T08:15:01.000Z</time>
      </trkpt>
      <trkpt lat="34.359084" lon="-83.788081">
        <ele>350.722272</ele>
        <time>2026-07-19T08:15:06.000Z</time>
      </trkpt>
      <trkpt lat="34.358899" lon="-83.788012">
        <ele>350.570747</ele>
        <time>2026-07-19T08:15:08.000Z</time>
      </trkpt>
      <trkpt lat="34.358665" lon="-83.788004">
        <ele>350.191565</ele>
        <time>2026-07-19T08:15:11.000Z</time>
      </trkpt>
      <trkpt lat="34.358382" lon="-83.788026">
        <ele>349.701249</ele>
        <time>2026-07-19T08:15:14.000Z</time>
      </trkpt>
      <trkpt lat="34.357814" lon="-83.788227">
        <ele>348.683407</ele>
        <time>2026-07-19T08:15:21.000Z</time>
      </trkpt>
      <trkpt lat="34.357022" lon="-83.78853">
        <ele>346.813504</ele>
        <time>2026-07-19T08:15:30.000Z</time>
      </trkpt>
      <trkpt lat="34.356738" lon="-83.788694">
        <ele>345.568662</ele>
        <time>2026-07-19T08:15:34.000Z</time>
      </trkpt>
      <trkpt lat="34.356333" lon="-83.789041">
        <ele>343.676898</ele>
        <time>2026-07-19T08:15:40.000Z</time>
      </trkpt>
      <trkpt lat="34.356267" lon="-83.789122">
        <ele>343.334611</ele>
        <time>2026-07-19T08:15:41.000Z</time>
      </trkpt>
      <trkpt lat="34.3562" lon="-83.78919">
        <ele>342.947969</ele>
        <time>2026-07-19T08:15:42.000Z</time>
      </trkpt>
      <trkpt lat="34.356089" lon="-83.789316">
        <ele>342.386685</ele>
        <time>2026-07-19T08:15:44.000Z</time>
      </trkpt>
      <trkpt lat="34.35602" lon="-83.789427">
        <ele>341.931632</ele>
        <time>2026-07-19T08:15:45.000Z</time>
      </trkpt>
      <trkpt lat="34.355866" lon="-83.789639">
        <ele>341.06133</ele>
        <time>2026-07-19T08:15:48.000Z</time>
      </trkpt>
      <trkpt lat="34.355704" lon="-83.789906">
        <ele>340.211791</ele>
        <time>2026-07-19T08:15:51.000Z</time>
      </trkpt>
      <trkpt lat="34.355564" lon="-83.790122">
        <ele>339.5957</ele>
        <time>2026-07-19T08:15:54.000Z</time>
      </trkpt>
      <trkpt lat="34.355395" lon="-83.790409">
        <ele>338.780525</ele>
        <time>2026-07-19T08:15:57.000Z</time>
      </trkpt>
      <trkpt lat="34.355223" lon="-83.790692">
        <ele>338.001928</ele>
        <time>2026-07-19T08:16:00.000Z</time>
      </trkpt>
      <trkpt lat="34.354921" lon="-83.791106">
        <ele>336.769875</ele>
        <time>2026-07-19T08:16:05.000Z</time>
      </trkpt>
      <trkpt lat="34.354284" lon="-83.791849">
        <ele>335.334059247</ele>
        <time>2026-07-19T08:16:15.000Z</time>
      </trkpt>
      <trkpt lat="34.354109" lon="-83.792053">
        <ele>334.939715822</ele>
        <time>2026-07-19T08:16:18.000Z</time>
      </trkpt>
      <trkpt lat="34.353907" lon="-83.792292">
        <ele>334.481240623</ele>
        <time>2026-07-19T08:16:21.000Z</time>
      </trkpt>
      <trkpt lat="34.353309" lon="-83.79304">
        <ele>333.085528603</ele>
        <time>2026-07-19T08:16:31.000Z</time>
      </trkpt>
    </trkseg>
  </trk>
</gpx>

<!--
Performance optimized by W3 Total Cache. Learn more: https://www.boldgrid.com/w3-total-cache/?utm_source=w3tc&utm_medium=footer_comment&utm_campaign=free_plugin

Page Caching using Disk: Enhanced{w3tc_pagecache_reject_reason} 

Served from: www.aquabike.world @ 2026-05-10 18:44:55 by W3 Total Cache
-->